Time;durP1;ratioP1;P1;durP2;ratioP2;P2;SDS_P1;SDS_P2;PMS_P1;PMS_P2;Temp;Humidity;BMP_temperature;BMP_pressure;BME280_temperature;BME280_humidity;BME280_pressure;Samples;Min_cycle;Max_cycle;Signal;HPM_P1;HPM_P2
2022/05/27 00:00:41;;;;;;;24.52;17.92;;;;;;;;;;2064503;28;20177;-51
2022/05/27 00:01:41;;;;;;;21.13;18.15;;;;;;;;;;2064745;28;20193;-53
2022/05/27 00:02:41;;;;;;;22.17;18.30;;;;;;;;;;2065550;28;20558;-55
2022/05/27 00:03:41;;;;;;;20.77;17.98;;;;;;;;;;2064701;28;20204;-50
2022/05/27 00:04:42;;;;;;;19.70;17.63;;;;;;;;;;2063980;28;20184;-52
2022/05/27 00:05:42;;;;;;;26.05;19.50;;;;;;;;;;2059141;28;20186;-56
2022/05/27 00:06:42;;;;;;;22.08;17.67;;;;;;;;;;2065111;28;20197;-52
2022/05/27 00:07:43;;;;;;;22.90;18.27;;;;;;;;;;2065402;28;20181;-56
2022/05/27 00:08:43;;;;;;;21.08;17.85;;;;;;;;;;2065612;28;20177;-53
2022/05/27 00:09:43;;;;;;;22.80;17.88;;;;;;;;;;2065049;28;20181;-52
2022/05/27 00:10:44;;;;;;;22.85;17.63;;;;;;;;;;2064825;28;20582;-56
2022/05/27 00:11:44;;;;;;;20.75;18.35;;;;;;;;;;2065517;28;20646;-53
2022/05/27 00:12:44;;;;;;;26.88;19.10;;;;;;;;;;2064970;28;20188;-54
2022/05/27 00:13:44;;;;;;;19.55;17.35;;;;;;;;;;2068264;28;20205;-53
2022/05/27 00:14:45;;;;;;;24.55;18.05;;;;;;;;;;2066324;28;20621;-55
2022/05/27 00:15:45;;;;;;;20.23;18.10;;;;;;;;;;2067600;28;20181;-57
2022/05/27 00:16:45;;;;;;;27.20;19.05;;;;;;;;;;2066592;28;20247;-50
2022/05/27 00:17:46;;;;;;;22.17;17.77;;;;;;;;;;2065431;28;20198;-53
2022/05/27 00:18:47;;;;;;;24.27;19.58;;;;;;;;;;2065420;28;20177;-53
2022/05/27 00:19:47;;;;;;;22.77;19.33;;;;;;;;;;2065446;28;20173;-51
2022/05/27 00:20:47;;;;;;;21.80;19.63;;;;;;;;;;2065288;28;20596;-55
2022/05/27 00:21:48;;;;;;;26.40;20.08;;;;;;;;;;2065146;28;20177;-52
2022/05/27 00:22:48;;;;;;;25.05;19.20;;;;;;;;;;2065327;28;20522;-56
2022/05/27 00:23:48;;;;;;;34.08;21.80;;;;;;;;;;2065198;28;20198;-55
2022/05/27 00:24:48;;;;;;;24.85;18.88;;;;;;;;;;2064363;28;20184;-54
2022/05/27 00:25:49;;;;;;;26.83;20.02;;;;;;;;;;2064591;28;20618;-52
2022/05/27 00:26:49;;;;;;;23.88;19.48;;;;;;;;;;2063961;28;20263;-54
2022/05/27 00:27:49;;;;;;;19.40;17.08;;;;;;;;;;2065684;28;20265;-51
2022/05/27 00:28:49;;;;;;;25.25;20.65;;;;;;;;;;2065321;28;20169;-51
2022/05/27 00:29:50;;;;;;;23.40;19.45;;;;;;;;;;2065680;28;20177;-56
2022/05/27 00:30:50;;;;;;;23.48;20.13;;;;;;;;;;2065626;28;20201;-51
2022/05/27 00:31:50;;;;;;;22.58;20.10;;;;;;;;;;2065611;28;20170;-53
2022/05/27 00:32:51;;;;;;;24.90;20.27;;;;;;;;;;2065684;28;20642;-54
2022/05/27 00:33:51;;;;;;;24.17;20.80;;;;;;;;;;2065725;28;20200;-51
2022/05/27 00:34:52;;;;;;;26.58;21.00;;;;;;;;;;2064132;28;20181;-52
2022/05/27 00:35:52;;;;;;;25.92;20.83;;;;;;;;;;2065341;28;20165;-51
2022/05/27 00:36:52;;;;;;;28.50;21.67;;;;;;;;;;2064598;28;20190;-52
2022/05/27 00:37:52;;;;;;;22.60;20.20;;;;;;;;;;2064321;28;20732;-55
2022/05/27 00:38:54;;;;;;;23.88;21.27;;;;;;;;;;2065272;28;20173;-53
2022/05/27 00:39:56;;;;;;;24.85;21.08;;;;;;;;;;2065294;28;20661;-54
2022/05/27 00:40:57;;;;;;;25.23;21.60;;;;;;;;;;2065487;28;20662;-52
2022/05/27 00:41:57;;;;;;;22.60;19.52;;;;;;;;;;2064989;28;20173;-55
2022/05/27 00:42:57;;;;;;;27.77;22.77;;;;;;;;;;2065300;28;20200;-52
2022/05/27 00:43:58;;;;;;;24.85;22.23;;;;;;;;;;2064805;28;20170;-57
2022/05/27 00:44:59;;;;;;;26.60;21.50;;;;;;;;;;2064231;28;20568;-52
2022/05/27 00:46:01;;;;;;;27.88;22.25;;;;;;;;;;2056644;28;20162;-50
2022/05/27 00:47:03;;;;;;;26.42;22.23;;;;;;;;;;2064366;28;20236;-53
2022/05/27 00:48:05;;;;;;;25.48;21.25;;;;;;;;;;2065236;28;20177;-52
2022/05/27 00:49:10;;;;;;;25.92;22.95;;;;;;;;;;2065125;28;20173;-51
2022/05/27 00:50:11;;;;;;;22.75;19.30;;;;;;;;;;2065222;28;20185;-51
2022/05/27 00:51:19;;;;;;;21.50;18.95;;;;;;;;;;2065378;28;20169;-52
2022/05/27 00:52:20;;;;;;;23.85;20.42;;;;;;;;;;2065212;28;20170;-50
2022/05/27 00:53:24;;;;;;;25.15;20.95;;;;;;;;;;2065525;28;20186;-54
2022/05/27 00:54:25;;;;;;;23.25;20.95;;;;;;;;;;2064338;28;20186;-56
2022/05/27 00:55:26;;;;;;;26.58;23.13;;;;;;;;;;2065620;28;20542;-50
2022/05/27 00:56:30;;;;;;;22.67;19.52;;;;;;;;;;2065037;28;20169;-51
2022/05/27 00:57:33;;;;;;;28.20;21.60;;;;;;;;;;2065020;28;20267;-50
2022/05/27 00:58:37;;;;;;;26.55;22.17;;;;;;;;;;2064487;28;20339;-50
2022/05/27 00:59:43;;;;;;;27.10;24.13;;;;;;;;;;2064971;28;20178;-51
2022/05/27 01:00:43;;;;;;;29.17;21.75;;;;;;;;;;2064755;28;20624;-51
2022/05/27 01:01:44;;;;;;;25.75;22.48;;;;;;;;;;2064610;28;20170;-55
2022/05/27 01:02:45;;;;;;;27.83;23.90;;;;;;;;;;2064403;28;20209;-53
2022/05/27 01:03:46;;;;;;;21.85;19.52;;;;;;;;;;2064739;28;20177;-51
2022/05/27 01:04:47;;;;;;;25.80;23.00;;;;;;;;;;2063884;28;20170;-52
2022/05/27 01:05:48;;;;;;;25.48;22.83;;;;;;;;;;2057117;28;20174;-50
2022/05/27 01:06:48;;;;;;;26.38;23.40;;;;;;;;;;2058051;28;20206;-55
2022/05/27 01:08:00;;;;;;;24.50;21.75;;;;;;;;;;2065630;28;20173;-51
2022/05/27 01:09:01;;;;;;;25.30;20.50;;;;;;;;;;2065134;28;20670;-55
2022/05/27 01:10:02;;;;;;;22.42;20.02;;;;;;;;;;2065411;28;20170;-52
2022/05/27 01:11:21;;;;;;;23.23;20.70;;;;;;;;;;2065444;28;20544;-51
2022/05/27 01:12:30;;;;;;;23.35;21.05;;;;;;;;;;2065261;28;20217;-55
2022/05/27 01:13:48;;;;;;;25.40;21.13;;;;;;;;;;2065745;28;20174;-58
2022/05/27 01:14:49;;;;;;;23.23;20.98;;;;;;;;;;2066518;28;20181;-55
2022/05/27 01:15:55;;;;;;;24.92;19.73;;;;;;;;;;2067935;28;20178;-56
2022/05/27 01:17:01;;;;;;;20.13;17.92;;;;;;;;;;2067860;28;20192;-56
2022/05/27 01:18:16;;;;;;;22.27;19.98;;;;;;;;;;2068058;28;20370;-54
2022/05/27 01:21:10;;;;;;;22.00;17.60;;;;;;;;;;2066696;28;20509;-53
2022/05/27 01:22:16;;;;;;;23.92;18.58;;;;;;;;;;2067063;28;20153;-54
2022/05/27 01:23:36;;;;;;;24.88;20.23;;;;;;;;;;2066701;28;20615;-50
2022/05/27 01:25:00;;;;;;;23.60;21.00;;;;;;;;;;2066457;28;20177;-54
2022/05/27 01:26:19;;;;;;;23.23;20.80;;;;;;;;;;2067377;28;20157;-54
2022/05/27 01:27:25;;;;;;;25.15;22.45;;;;;;;;;;2067408;28;20275;-52
2022/05/27 01:28:34;;;;;;;24.13;21.58;;;;;;;;;;2066909;28;20181;-50
2022/05/27 01:29:43;;;;;;;26.17;22.40;;;;;;;;;;2066563;28;20264;-52
2022/05/27 01:30:58;;;;;;;25.52;21.17;;;;;;;;;;2064708;28;20546;-51
2022/05/27 01:32:07;;;;;;;24.67;21.48;;;;;;;;;;2066412;28;20717;-51
2022/05/27 01:33:14;;;;;;;30.00;23.85;;;;;;;;;;2066184;28;20220;-52
2022/05/27 01:34:17;;;;;;;24.65;22.05;;;;;;;;;;2065232;28;20150;-51
2022/05/27 01:35:23;;;;;;;18.45;16.55;;;;;;;;;;2063042;28;20231;-51
2022/05/27 01:36:42;;;;;;;17.55;15.77;;;;;;;;;;2066798;28;20160;-48
2022/05/27 01:37:49;;;;;;;14.13;12.63;;;;;;;;;;2066328;28;20197;-55
2022/05/27 01:39:00;;;;;;;12.23;11.13;;;;;;;;;;2066223;28;20166;-51
2022/05/27 01:40:32;;;;;;;11.10;10.05;;;;;;;;;;2066777;28;20252;-51
2022/05/27 01:41:36;;;;;;;10.13;9.30;;;;;;;;;;2053460;28;20178;-52
2022/05/27 01:42:43;;;;;;;9.80;8.88;;;;;;;;;;2061643;28;20173;-52
2022/05/27 01:43:52;;;;;;;8.85;8.02;;;;;;;;;;2066049;28;20193;-52
2022/05/27 01:44:58;;;;;;;6.80;5.53;;;;;;;;;;2066195;28;20311;-50
2022/05/27 01:46:16;;;;;;;10.23;6.25;;;;;;;;;;2066281;28;20181;-57
2022/05/27 01:47:24;;;;;;;5.63;5.22;;;;;;;;;;2066215;28;20240;-56
2022/05/27 01:48:24;;;;;;;6.30;5.60;;;;;;;;;;2073400;28;20185;-51
2022/05/27 01:49:33;;;;;;;5.85;5.20;;;;;;;;;;2073578;28;20603;-52
2022/05/27 01:50:37;;;;;;;6.95;6.22;;;;;;;;;;2073802;28;20591;-53
2022/05/27 01:51:37;;;;;;;5.97;5.47;;;;;;;;;;2073508;28;20173;-53
2022/05/27 01:52:44;;;;;;;6.60;5.97;;;;;;;;;;2066486;28;20170;-53
2022/05/27 01:53:46;;;;;;;7.10;6.50;;;;;;;;;;2066414;28;20213;-51
2022/05/27 01:54:56;;;;;;;8.73;5.30;;;;;;;;;;2065468;28;20581;-50
2022/05/27 01:56:09;;;;;;;8.70;6.65;;;;;;;;;;2066546;28;20205;-52
2022/05/27 01:57:13;;;;;;;7.43;6.80;;;;;;;;;;2066313;28;20209;-52
2022/05/27 01:58:23;;;;;;;7.10;6.50;;;;;;;;;;2066962;28;20192;-56
2022/05/27 01:59:32;;;;;;;7.30;6.55;;;;;;;;;;2066313;28;20241;-52
2022/05/27 02:00:34;;;;;;;7.43;6.72;;;;;;;;;;2066203;28;20185;-50
2022/05/27 02:01:36;;;;;;;6.93;6.28;;;;;;;;;;2066945;28;20200;-54
2022/05/27 02:02:40;;;;;;;6.60;6.10;;;;;;;;;;2066847;28;20197;-50
2022/05/27 02:03:42;;;;;;;6.10;5.60;;;;;;;;;;2067261;28;20209;-54
2022/05/27 02:04:49;;;;;;;5.70;5.25;;;;;;;;;;2064371;28;20172;-54
2022/05/27 02:06:08;;;;;;;5.82;5.40;;;;;;;;;;2059235;28;20186;-53
2022/05/27 02:07:11;;;;;;;5.60;5.10;;;;;;;;;;2065161;28;20240;-53
2022/05/27 02:08:14;;;;;;;7.65;5.70;;;;;;;;;;2058064;28;20190;-53
2022/05/27 02:09:50;;;;;;;5.00;4.65;;;;;;;;;;2058903;28;20174;-53
2022/05/27 02:10:54;;;;;;;5.20;4.78;;;;;;;;;;2050387;29;20201;-56
2022/05/27 02:11:56;;;;;;;4.53;4.22;;;;;;;;;;2050948;28;20287;-51
2022/05/27 02:13:00;;;;;;;6.38;4.30;;;;;;;;;;2061593;28;20262;-54
2022/05/27 02:14:02;;;;;;;6.50;4.70;;;;;;;;;;2068236;28;20162;-50
2022/05/27 02:15:14;;;;;;;4.63;4.20;;;;;;;;;;2069336;28;20178;-56
2022/05/27 02:16:27;;;;;;;5.93;4.47;;;;;;;;;;2067736;28;20162;-54
2022/05/27 02:17:30;;;;;;;4.95;4.55;;;;;;;;;;2060701;28;20186;-51
2022/05/27 02:18:36;;;;;;;4.18;3.78;;;;;;;;;;2059704;28;20205;-54
2022/05/27 02:19:56;;;;;;;4.18;3.88;;;;;;;;;;2061346;28;20720;-56
2022/05/27 02:21:03;;;;;;;3.88;3.58;;;;;;;;;;2068118;28;20173;-54
2022/05/27 02:22:12;;;;;;;4.00;3.70;;;;;;;;;;2068547;28;20162;-57
2022/05/27 02:23:24;;;;;;;3.80;3.47;;;;;;;;;;2068210;28;20173;-56
2022/05/27 02:24:34;;;;;;;4.72;3.63;;;;;;;;;;2066459;28;20166;-53
2022/05/27 02:25:36;;;;;;;3.88;3.58;;;;;;;;;;2058970;28;20201;-52
2022/05/27 02:26:43;;;;;;;4.60;4.05;;;;;;;;;;2059638;28;20170;-57
2022/05/27 02:27:43;;;;;;;4.55;4.18;;;;;;;;;;2060361;28;20181;-54
2022/05/27 02:28:45;;;;;;;4.47;3.53;;;;;;;;;;2061144;28;20201;-55
2022/05/27 02:29:48;;;;;;;5.03;4.63;;;;;;;;;;2062510;28;20256;-57
2022/05/27 02:30:50;;;;;;;6.15;4.05;;;;;;;;;;2068295;28;20197;-58
2022/05/27 02:31:52;;;;;;;5.50;4.45;;;;;;;;;;2067920;28;20188;-57
2022/05/27 02:35:07;;;;;;;4.10;3.70;;;;;;;;;;2067489;28;20177;-59
2022/05/27 02:35:40;;;;;;;5.28;4.50;;;;;;;;;;2067489;28;20650;-55
2022/05/27 02:36:47;;;;;;;4.40;4.10;;;;;;;;;;2067941;28;20245;-54
2022/05/27 02:37:49;;;;;;;4.20;3.90;;;;;;;;;;2068597;28;20229;-55
2022/05/27 02:38:50;;;;;;;5.10;4.70;;;;;;;;;;2069511;28;20178;-58
2022/05/27 02:39:50;;;;;;;5.57;3.83;;;;;;;;;;2067262;28;20178;-60
2022/05/27 02:41:07;;;;;;;5.22;4.60;;;;;;;;;;2061366;28;20257;-52
2022/05/27 02:42:10;;;;;;;4.70;4.30;;;;;;;;;;2060542;28;20182;-56
2022/05/27 02:43:27;;;;;;;3.75;3.55;;;;;;;;;;2060572;28;20162;-59
2022/05/27 02:44:36;;;;;;;8.05;4.13;;;;;;;;;;2067342;28;20178;-53
2022/05/27 02:45:41;;;;;;;5.07;4.43;;;;;;;;;;2067745;28;20197;-50
2022/05/27 02:46:54;;;;;;;5.55;4.30;;;;;;;;;;2067253;28;20157;-55
2022/05/27 02:48:13;;;;;;;4.43;4.03;;;;;;;;;;2063406;28;20185;-56
2022/05/27 02:49:21;;;;;;;4.88;4.43;;;;;;;;;;2065522;28;20184;-52
2022/05/27 02:50:29;;;;;;;5.35;4.85;;;;;;;;;;2064984;28;20173;-52
2022/05/27 02:51:36;;;;;;;5.10;4.65;;;;;;;;;;2066493;28;20192;-57
2022/05/27 02:52:47;;;;;;;5.53;5.03;;;;;;;;;;2067279;28;20181;-54
2022/05/27 02:54:05;;;;;;;5.45;4.18;;;;;;;;;;2066819;28;20181;-56
2022/05/27 02:55:14;;;;;;;6.20;4.80;;;;;;;;;;2066625;28;20209;-58
2022/05/27 02:56:24;;;;;;;4.45;4.05;;;;;;;;;;2066799;28;20324;-54
2022/05/27 02:57:27;;;;;;;4.70;4.30;;;;;;;;;;2029114;28;1071462;-55
2022/05/27 02:58:29;;;;;;;6.13;4.40;;;;;;;;;;2067037;28;20177;-57
2022/05/27 02:59:30;;;;;;;4.38;3.97;;;;;;;;;;2066326;28;20798;-52
2022/05/27 03:00:32;;;;;;;5.18;4.72;;;;;;;;;;2066122;28;20186;-52
2022/05/27 03:01:32;;;;;;;5.18;4.70;;;;;;;;;;2066224;28;20173;-53
2022/05/27 03:02:33;;;;;;;5.97;5.28;;;;;;;;;;2066805;28;20180;-53
2022/05/27 03:03:33;;;;;;;5.13;4.60;;;;;;;;;;2067359;28;20264;-55
2022/05/27 03:04:34;;;;;;;5.22;4.82;;;;;;;;;;2067080;28;20200;-54
2022/05/27 03:05:53;;;;;;;5.65;5.03;;;;;;;;;;2059840;28;20182;-56
2022/05/27 03:07:00;;;;;;;5.60;4.93;;;;;;;;;;2059598;28;20213;-55
2022/05/27 03:08:08;;;;;;;5.22;4.90;;;;;;;;;;2059912;28;20159;-55
2022/05/27 03:09:14;;;;;;;5.72;4.95;;;;;;;;;;2065523;28;20548;-50
2022/05/27 03:10:23;;;;;;;5.95;5.15;;;;;;;;;;2075133;28;20230;-52
2022/05/27 03:11:34;;;;;;;5.55;4.95;;;;;;;;;;2074298;28;20237;-56
2022/05/27 03:12:37;;;;;;;5.75;5.25;;;;;;;;;;2066677;28;20533;-54
2022/05/27 03:13:44;;;;;;;5.85;4.68;;;;;;;;;;2065548;28;20573;-55
2022/05/27 03:14:57;;;;;;;6.78;5.22;;;;;;;;;;2064359;28;20260;-51
2022/05/27 03:16:05;;;;;;;7.20;5.63;;;;;;;;;;2063189;28;20693;-51
2022/05/27 03:17:20;;;;;;;6.03;5.50;;;;;;;;;;2065847;28;20561;-53
2022/05/27 03:18:33;;;;;;;6.20;5.60;;;;;;;;;;2065850;28;20170;-55
2022/05/27 03:19:42;;;;;;;6.40;5.55;;;;;;;;;;2065732;28;20154;-51
2022/05/27 03:20:50;;;;;;;7.45;6.25;;;;;;;;;;2066020;28;20169;-53
2022/05/27 03:21:54;;;;;;;6.90;5.90;;;;;;;;;;2065832;28;20228;-57
2022/05/27 03:22:58;;;;;;;7.10;6.38;;;;;;;;;;2065574;28;20223;-55
2022/05/27 03:23:58;;;;;;;7.43;6.72;;;;;;;;;;2064467;28;20585;-51
2022/05/27 03:25:01;;;;;;;7.25;6.22;;;;;;;;;;2064568;28;20208;-51
2022/05/27 03:26:19;;;;;;;7.43;6.68;;;;;;;;;;2065701;28;20172;-54
2022/05/27 03:27:39;;;;;;;6.80;6.25;;;;;;;;;;2065565;28;20556;-51
2022/05/27 03:28:59;;;;;;;8.35;6.70;;;;;;;;;;2061696;28;20216;-52
2022/05/27 03:30:11;;;;;;;6.40;5.80;;;;;;;;;;2065454;28;20173;-54
2022/05/27 03:31:14;;;;;;;6.45;5.72;;;;;;;;;;2065814;28;20240;-54
2022/05/27 03:32:19;;;;;;;7.30;6.53;;;;;;;;;;2065664;28;20178;-53
2022/05/27 03:33:26;;;;;;;7.25;6.53;;;;;;;;;;2065655;28;20162;-51
2022/05/27 03:34:30;;;;;;;9.95;7.20;;;;;;;;;;2065153;28;20185;-53
2022/05/27 03:35:36;;;;;;;10.68;6.82;;;;;;;;;;2065035;28;20224;-52
2022/05/27 03:36:36;;;;;;;7.82;6.82;;;;;;;;;;2064885;28;20173;-50
2022/05/27 03:38:00;;;;;;;10.65;7.50;;;;;;;;;;2064596;28;20205;-51
2022/05/27 03:39:06;;;;;;;7.90;7.30;;;;;;;;;;2051484;28;20201;-53
2022/05/27 03:40:11;;;;;;;8.35;6.32;;;;;;;;;;2072265;28;20710;-51
2022/05/27 03:41:17;;;;;;;10.13;6.68;;;;;;;;;;2065697;28;20173;-53
2022/05/27 03:42:19;;;;;;;8.38;7.22;;;;;;;;;;2065718;28;20173;-51
2022/05/27 03:43:20;;;;;;;7.95;6.57;;;;;;;;;;2065350;28;21013;-50
2022/05/27 03:44:22;;;;;;;7.70;6.97;;;;;;;;;;2064826;28;20174;-57
2022/05/27 03:45:23;;;;;;;11.10;7.63;;;;;;;;;;2065232;28;20178;-55
2022/05/27 03:46:31;;;;;;;9.65;7.93;;;;;;;;;;2065600;28;20209;-50
2022/05/27 03:47:32;;;;;;;10.95;8.15;;;;;;;;;;2065005;28;20169;-53
2022/05/27 03:48:34;;;;;;;9.45;8.35;;;;;;;;;;2065585;28;20569;-54
2022/05/27 03:49:34;;;;;;;10.25;7.38;;;;;;;;;;2064486;28;20265;-53
2022/05/27 03:50:34;;;;;;;8.70;7.82;;;;;;;;;;2064496;28;20174;-52
2022/05/27 03:51:37;;;;;;;8.45;7.75;;;;;;;;;;2065315;28;20174;-54
2022/05/27 03:52:41;;;;;;;8.73;7.88;;;;;;;;;;2065672;28;20228;-55
2022/05/27 03:55:01;;;;;;;10.70;7.32;;;;;;;;;;2065548;28;20189;-55
2022/05/27 03:56:01;;;;;;;8.82;8.02;;;;;;;;;;2064972;28;20181;-54
2022/05/27 03:57:01;;;;;;;8.90;8.05;;;;;;;;;;2076753;22;20227;-52
2022/05/27 03:58:02;;;;;;;12.52;8.73;;;;;;;;;;2061635;28;20253;-54
2022/05/27 03:59:03;;;;;;;13.30;7.93;;;;;;;;;;2064655;28;20185;-54
2022/05/27 04:00:04;;;;;;;9.35;8.45;;;;;;;;;;2057924;28;20184;-54
2022/05/27 04:01:12;;;;;;;10.57;8.85;;;;;;;;;;2062144;28;20182;-51
2022/05/27 04:02:12;;;;;;;10.05;8.45;;;;;;;;;;2064848;28;20239;-53
2022/05/27 04:03:13;;;;;;;9.45;8.55;;;;;;;;;;2065368;28;20244;-53
2022/05/27 04:04:15;;;;;;;9.93;8.80;;;;;;;;;;2064386;28;20173;-53
2022/05/27 04:05:17;;;;;;;9.95;8.20;;;;;;;;;;2063969;28;20229;-60
2022/05/27 04:06:18;;;;;;;11.45;8.43;;;;;;;;;;2060555;28;20190;-52
2022/05/27 04:07:18;;;;;;;9.45;8.48;;;;;;;;;;2062943;28;20190;-52
2022/05/27 04:08:18;;;;;;;12.23;9.13;;;;;;;;;;2065399;28;20200;-50
2022/05/27 04:09:19;;;;;;;9.95;8.75;;;;;;;;;;2065466;28;20182;-52
2022/05/27 04:10:20;;;;;;;10.40;8.48;;;;;;;;;;2059867;28;20166;-50
2022/05/27 04:11:20;;;;;;;9.63;8.32;;;;;;;;;;2057524;28;20181;-53
2022/05/27 04:12:21;;;;;;;11.23;8.77;;;;;;;;;;2057844;28;20178;-55
2022/05/27 04:13:21;;;;;;;9.68;8.48;;;;;;;;;;2057682;28;20607;-55
2022/05/27 04:14:22;;;;;;;11.02;8.65;;;;;;;;;;2054577;28;20659;-55
2022/05/27 04:15:22;;;;;;;9.63;8.65;;;;;;;;;;2056431;28;20635;-58
2022/05/27 04:16:23;;;;;;;8.82;7.97;;;;;;;;;;2057729;28;20186;-57
2022/05/27 04:17:32;;;;;;;11.57;9.13;;;;;;;;;;2058902;28;20232;-58
2022/05/27 04:18:32;;;;;;;16.83;9.27;;;;;;;;;;2057922;28;20170;-54
2022/05/27 04:19:33;;;;;;;10.23;8.00;;;;;;;;;;2058395;28;20188;-57
2022/05/27 04:20:33;;;;;;;10.60;8.50;;;;;;;;;;2058115;28;20196;-55
2022/05/27 04:21:33;;;;;;;11.98;9.02;;;;;;;;;;2049940;29;20171;-54
2022/05/27 04:22:34;;;;;;;9.35;8.30;;;;;;;;;;2049612;29;20171;-57
2022/05/27 04:23:35;;;;;;;14.00;8.77;;;;;;;;;;2058456;28;20706;-55
2022/05/27 04:24:35;;;;;;;9.43;8.48;;;;;;;;;;2057292;28;20189;-56
2022/05/27 04:25:36;;;;;;;8.95;8.15;;;;;;;;;;2058225;28;20656;-56
2022/05/27 04:26:36;;;;;;;11.45;8.32;;;;;;;;;;2057621;28;20233;-56
2022/05/27 04:27:37;;;;;;;10.98;8.13;;;;;;;;;;2058126;28;20699;-54
2022/05/27 04:28:38;;;;;;;11.80;8.00;;;;;;;;;;2058218;28;20250;-56
2022/05/27 04:29:39;;;;;;;11.10;8.20;;;;;;;;;;2057926;28;20216;-56
2022/05/27 04:30:39;;;;;;;10.57;8.68;;;;;;;;;;2056618;28;20690;-58
2022/05/27 04:31:39;;;;;;;9.68;7.88;;;;;;;;;;2056438;28;20211;-56
2022/05/27 04:32:40;;;;;;;10.30;8.13;;;;;;;;;;2057276;28;20174;-56
2022/05/27 04:33:40;;;;;;;11.20;8.73;;;;;;;;;;2057908;28;20910;-54
2022/05/27 04:34:41;;;;;;;9.70;8.68;;;;;;;;;;2057128;28;20543;-55
2022/05/27 04:35:42;;;;;;;10.35;8.23;;;;;;;;;;2057844;28;20186;-56
2022/05/27 04:36:42;;;;;;;10.55;9.05;;;;;;;;;;2057543;28;20182;-52
2022/05/27 04:37:42;;;;;;;11.05;8.85;;;;;;;;;;2057794;28;20205;-55
2022/05/27 04:38:43;;;;;;;8.65;7.68;;;;;;;;;;2058650;28;20185;-49
2022/05/27 04:39:43;;;;;;;9.38;8.45;;;;;;;;;;2058089;28;20658;-57
2022/05/27 04:40:43;;;;;;;11.82;8.70;;;;;;;;;;2057246;28;20277;-55
2022/05/27 04:41:45;;;;;;;8.40;7.57;;;;;;;;;;2057792;28;20185;-57
2022/05/27 04:42:45;;;;;;;8.07;7.25;;;;;;;;;;2057638;28;20257;-50
2022/05/27 04:43:46;;;;;;;9.40;8.43;;;;;;;;;;2057802;28;20182;-56
2022/05/27 04:44:46;;;;;;;9.73;8.20;;;;;;;;;;2056198;28;20167;-59
2022/05/27 04:45:46;;;;;;;11.95;7.63;;;;;;;;;;2057194;28;20197;-55
2022/05/27 04:46:47;;;;;;;7.95;7.13;;;;;;;;;;2057817;28;20189;-55
2022/05/27 04:47:47;;;;;;;13.10;8.45;;;;;;;;;;2050029;28;20198;-54
2022/05/27 04:48:49;;;;;;;11.02;7.63;;;;;;;;;;2049639;28;20250;-56
2022/05/27 04:49:56;;;;;;;8.82;7.93;;;;;;;;;;2057644;28;20209;-54
2022/05/27 04:50:56;;;;;;;9.30;7.93;;;;;;;;;;2059046;28;20652;-58
2022/05/27 04:51:56;;;;;;;10.43;7.53;;;;;;;;;;2059343;28;20182;-56
2022/05/27 04:52:56;;;;;;;8.95;7.68;;;;;;;;;;2058532;28;20186;-53
2022/05/27 04:53:57;;;;;;;8.15;7.35;;;;;;;;;;2058400;28;20207;-57
2022/05/27 04:54:58;;;;;;;8.30;7.10;;;;;;;;;;2058734;28;20174;-56
2022/05/27 04:55:59;;;;;;;9.38;7.47;;;;;;;;;;2059136;28;20178;-53
2022/05/27 04:56:59;;;;;;;10.20;6.82;;;;;;;;;;2057919;28;20174;-57
2022/05/27 04:58:00;;;;;;;10.50;7.43;;;;;;;;;;2059336;28;20300;-52
2022/05/27 04:59:00;;;;;;;12.45;7.85;;;;;;;;;;2058474;28;20201;-54
2022/05/27 05:00:01;;;;;;;10.68;7.60;;;;;;;;;;2058486;28;20258;-55
2022/05/27 05:01:01;;;;;;;8.88;7.20;;;;;;;;;;2059198;28;20602;-54
2022/05/27 05:02:04;;;;;;;10.27;7.88;;;;;;;;;;2058671;28;20209;-53
2022/05/27 05:03:04;;;;;;;14.15;8.23;;;;;;;;;;2056455;28;20179;-55
2022/05/27 05:04:05;;;;;;;9.02;8.13;;;;;;;;;;2049553;28;20170;-56
2022/05/27 05:05:05;;;;;;;14.05;7.82;;;;;;;;;;2054157;28;20182;-55
2022/05/27 05:06:05;;;;;;;11.70;7.60;;;;;;;;;;2060712;28;20555;-52
2022/05/27 05:07:07;;;;;;;10.93;7.40;;;;;;;;;;2063209;28;20186;-53
2022/05/27 05:08:15;;;;;;;11.48;7.15;;;;;;;;;;2058863;28;20620;-54
2022/05/27 05:09:16;;;;;;;8.57;7.35;;;;;;;;;;2059041;28;20178;-49
2022/05/27 05:10:17;;;;;;;10.52;7.30;;;;;;;;;;2058911;28;20554;-57
2022/05/27 05:11:17;;;;;;;10.38;7.13;;;;;;;;;;2058016;28;20178;-53
2022/05/27 05:12:24;;;;;;;7.75;6.90;;;;;;;;;;2058499;28;20598;-53
2022/05/27 05:13:24;;;;;;;9.45;7.03;;;;;;;;;;2059249;28;20189;-52
2022/05/27 05:14:24;;;;;;;11.75;7.25;;;;;;;;;;2058106;28;20174;-50
2022/05/27 05:15:25;;;;;;;9.35;7.10;;;;;;;;;;2058725;28;20731;-54
2022/05/27 05:16:26;;;;;;;7.47;6.78;;;;;;;;;;2058806;28;20309;-53
2022/05/27 05:17:26;;;;;;;12.25;6.95;;;;;;;;;;2058964;28;20675;-51
2022/05/27 05:18:27;;;;;;;14.50;7.70;;;;;;;;;;2059526;28;20174;-54
2022/05/27 05:19:27;;;;;;;7.70;6.95;;;;;;;;;;2062952;28;20162;-58
2022/05/27 05:20:29;;;;;;;14.18;7.30;;;;;;;;;;2062117;28;20201;-57
2022/05/27 05:21:29;;;;;;;9.02;7.07;;;;;;;;;;2059119;28;20189;-56
2022/05/27 05:22:29;;;;;;;8.73;7.13;;;;;;;;;;2058632;28;20201;-51
2022/05/27 05:23:30;;;;;;;10.90;7.28;;;;;;;;;;2058904;28;20517;-51
2022/05/27 05:24:30;;;;;;;8.40;7.05;;;;;;;;;;2057673;28;20229;-55
2022/05/27 05:25:30;;;;;;;8.27;7.13;;;;;;;;;;2058761;28;20633;-53
2022/05/27 05:26:31;;;;;;;10.88;8.57;;;;;;;;;;2058380;28;20186;-51
2022/05/27 05:27:31;;;;;;;8.15;7.32;;;;;;;;;;2058758;28;20206;-55
2022/05/27 05:28:31;;;;;;;12.90;8.02;;;;;;;;;;2058577;28;20210;-55
2022/05/27 05:29:31;;;;;;;10.05;7.72;;;;;;;;;;2058860;28;20197;-49
2022/05/27 05:30:32;;;;;;;11.45;7.85;;;;;;;;;;2058841;28;20170;-51
2022/05/27 05:31:32;;;;;;;10.85;8.05;;;;;;;;;;2058805;28;20256;-51
2022/05/27 05:32:32;;;;;;;10.10;6.95;;;;;;;;;;2058592;28;20174;-52
2022/05/27 05:33:33;;;;;;;12.40;7.80;;;;;;;;;;2058707;28;20178;-56
2022/05/27 05:34:33;;;;;;;7.55;6.22;;;;;;;;;;2057828;28;20249;-49
2022/05/27 05:35:34;;;;;;;9.32;7.07;;;;;;;;;;2058602;28;20704;-48
2022/05/27 05:36:35;;;;;;;10.57;7.25;;;;;;;;;;2058633;28;20218;-54
2022/05/27 05:37:35;;;;;;;9.90;7.38;;;;;;;;;;2058319;28;20198;-57
2022/05/27 05:38:36;;;;;;;10.68;7.00;;;;;;;;;;2058611;28;20183;-50
2022/05/27 05:39:40;;;;;;;15.32;7.93;;;;;;;;;;2058664;28;20170;-50
2022/05/27 05:40:40;;;;;;;8.93;7.57;;;;;;;;;;2058673;28;20532;-52
2022/05/27 05:41:41;;;;;;;14.20;6.90;;;;;;;;;;2058543;28;20183;-49
2022/05/27 05:42:42;;;;;;;9.95;7.30;;;;;;;;;;2058600;28;20627;-55
2022/05/27 05:43:42;;;;;;;6.95;6.20;;;;;;;;;;2058518;28;20182;-55
2022/05/27 05:44:42;;;;;;;11.43;6.60;;;;;;;;;;2057825;28;20273;-54
2022/05/27 05:45:42;;;;;;;14.55;7.15;;;;;;;;;;2058309;28;20177;-53
2022/05/27 05:46:43;;;;;;;10.55;7.15;;;;;;;;;;2058441;28;20648;-59
2022/05/27 05:47:43;;;;;;;9.70;6.97;;;;;;;;;;2051357;28;20229;-61
2022/05/27 05:48:44;;;;;;;7.18;6.50;;;;;;;;;;2049916;29;20546;-63
2022/05/27 05:49:44;;;;;;;8.10;6.55;;;;;;;;;;2053812;28;20238;-59
2022/05/27 05:50:44;;;;;;;8.20;6.13;;;;;;;;;;2065296;28;20166;-61
2022/05/27 05:51:45;;;;;;;11.95;6.15;;;;;;;;;;2059840;28;20595;-64
2022/05/27 05:52:45;;;;;;;7.75;6.70;;;;;;;;;;2066883;28;20646;-62
2022/05/27 05:53:46;;;;;;;9.48;6.45;;;;;;;;;;2066074;28;20261;-64
2022/05/27 05:54:46;;;;;;;7.05;6.35;;;;;;;;;;2055291;28;20227;-62
2022/05/27 05:55:47;;;;;;;12.18;6.65;;;;;;;;;;2055469;28;20233;-62
2022/05/27 05:56:48;;;;;;;10.43;6.75;;;;;;;;;;2058280;28;20174;-63
2022/05/27 05:57:49;;;;;;;11.63;6.60;;;;;;;;;;2059202;28;20317;-64
2022/05/27 05:58:50;;;;;;;7.07;6.40;;;;;;;;;;2066117;28;20203;-52
2022/05/27 05:59:50;;;;;;;10.80;6.40;;;;;;;;;;2061879;28;20178;-54
2022/05/27 06:00:50;;;;;;;10.38;6.47;;;;;;;;;;2059980;28;20194;-57
2022/05/27 06:01:51;;;;;;;10.18;6.40;;;;;;;;;;2060409;28;20182;-60
2022/05/27 06:02:51;;;;;;;6.50;5.40;;;;;;;;;;2056105;28;20217;-57
2022/05/27 06:03:52;;;;;;;6.85;5.13;;;;;;;;;;2057063;28;20253;-53
2022/05/27 06:04:52;;;;;;;9.27;6.15;;;;;;;;;;2057444;28;20174;-57
2022/05/27 06:05:53;;;;;;;10.55;5.20;;;;;;;;;;2054656;28;20183;-57
2022/05/27 06:06:54;;;;;;;9.75;5.78;;;;;;;;;;2058695;28;20206;-58
2022/05/27 06:07:55;;;;;;;8.98;6.05;;;;;;;;;;2059072;28;20567;-59
2022/05/27 06:08:56;;;;;;;7.32;5.45;;;;;;;;;;2057136;28;20253;-57
2022/05/27 06:09:56;;;;;;;11.18;5.97;;;;;;;;;;2055930;28;20201;-54
2022/05/27 06:10:56;;;;;;;9.35;5.85;;;;;;;;;;2057801;28;20178;-59
2022/05/27 06:11:59;;;;;;;7.82;5.40;;;;;;;;;;2057497;28;20205;-61
2022/05/27 06:13:00;;;;;;;8.25;4.80;;;;;;;;;;2056749;28;20182;-60
2022/05/27 06:14:00;;;;;;;10.27;5.68;;;;;;;;;;2051299;28;20639;-56
2022/05/27 06:15:00;;;;;;;8.05;4.88;;;;;;;;;;2056124;28;20174;-59
2022/05/27 06:16:01;;;;;;;8.80;5.25;;;;;;;;;;2058099;28;20820;-60
2022/05/27 06:17:01;;;;;;;8.90;5.18;;;;;;;;;;2057956;28;20174;-60
2022/05/27 06:18:02;;;;;;;7.97;5.15;;;;;;;;;;2058001;28;20237;-54
2022/05/27 06:19:02;;;;;;;5.40;4.90;;;;;;;;;;2056479;28;20193;-57
2022/05/27 06:20:03;;;;;;;7.00;4.60;;;;;;;;;;2058163;28;20189;-53
2022/05/27 06:21:04;;;;;;;7.57;4.68;;;;;;;;;;2058099;28;20166;-58
2022/05/27 06:22:04;;;;;;;6.68;4.60;;;;;;;;;;2058178;28;20578;-53